createdAt,value
2018-07-01T00:01:03.556Z,44.60
2018-07-01T00:03:33.446Z,43.80
2018-07-01T00:06:03.619Z,42.50
2018-07-01T00:08:33.369Z,43.40
2018-07-01T00:11:03.169Z,44.90
2018-07-01T00:13:32.732Z,44.50
2018-07-01T00:16:02.623Z,45.00
2018-07-01T00:18:34.463Z,44.70
2018-07-01T00:21:02.971Z,44.90
2018-07-01T00:23:32.858Z,44.00
2018-07-01T00:26:02.757Z,44.90
2018-07-01T00:28:33.319Z,44.80
2018-07-01T00:31:03.724Z,44.70
2018-07-01T00:33:32.931Z,44.90
2018-07-01T00:36:02.699Z,44.70
2018-07-01T00:38:34.171Z,44.40
2018-07-01T00:41:03.416Z,44.70
2018-07-01T00:43:32.937Z,43.90
2018-07-01T00:46:02.524Z,44.20
2018-07-01T00:48:34.429Z,45.50
2018-07-01T00:51:03.060Z,45.00
2018-07-01T00:53:32.384Z,44.80
2018-07-01T00:56:04.277Z,45.40
2018-07-01T00:58:32.810Z,45.20
2018-07-01T01:01:02.645Z,45.70
2018-07-01T01:03:34.272Z,45.80
2018-07-01T01:06:03.057Z,45.90
2018-07-01T01:08:32.834Z,45.80
2018-07-01T01:11:04.760Z,45.70
2018-07-01T01:13:33.209Z,44.30
2018-07-01T01:16:02.896Z,45.70
2018-07-01T01:18:33.392Z,45.90
2018-07-01T01:21:03.721Z,45.50
2018-07-01T01:23:33.524Z,46.10
2018-07-01T01:26:03.190Z,45.70
2018-07-01T01:28:33.231Z,46.70
2018-07-01T01:31:03.686Z,46.60
2018-07-01T01:33:33.875Z,46.20
2018-07-01T01:36:03.498Z,46.60
2018-07-01T01:38:34.997Z,46.90
2018-07-01T01:41:21.245Z,46.80
2018-07-01T01:47:36.033Z,46.90
2018-07-01T02:05:09.157Z,47.60
2018-07-01T02:10:32.989Z,47.10
2018-07-01T02:13:03.469Z,47.80
2018-07-01T02:16:04.172Z,48.10
2018-07-01T02:18:33.181Z,48.00
2018-07-01T02:21:02.962Z,48.10
2018-07-01T02:23:36.882Z,48.40
2018-07-01T02:26:05.419Z,48.10
2018-07-01T02:28:33.977Z,48.30
2018-07-01T02:31:02.999Z,48.40
2018-07-01T02:33:32.848Z,48.40
2018-07-01T02:36:05.013Z,48.30
2018-07-01T02:38:33.745Z,48.50
2018-07-01T02:41:02.614Z,48.70
2018-07-01T02:43:34.192Z,48.50
2018-07-01T02:46:02.928Z,48.30
2018-07-01T02:48:34.399Z,48.60
2018-07-01T02:51:02.695Z,48.80
2018-07-01T02:53:32.800Z,48.50
2018-07-01T02:56:04.652Z,48.80
2018-07-01T02:58:33.068Z,48.30
2018-07-01T03:01:03.006Z,48.80
2018-07-01T03:03:33.054Z,48.90
2018-07-01T03:06:02.826Z,49.20
2018-07-01T03:08:33.344Z,49.20
2018-07-01T03:11:03.069Z,49.10
2018-07-01T03:13:32.796Z,49.30
2018-07-01T03:16:02.567Z,49.40
2018-07-01T03:18:34.413Z,49.40
2018-07-01T03:21:03.219Z,49.50
2018-07-01T03:23:32.507Z,49.10
2018-07-01T03:26:04.171Z,49.40
2018-07-01T03:28:32.612Z,49.40
2018-07-01T03:31:02.986Z,49.40
2018-07-01T03:33:32.567Z,49.60
2018-07-01T03:36:04.177Z,49.50
2018-07-01T03:38:32.517Z,49.90
2018-07-01T03:41:04.480Z,49.00
2018-07-01T03:43:32.955Z,49.50
2018-07-01T03:46:03.018Z,49.60
2018-07-01T03:48:32.960Z,50.10
2018-07-01T03:51:03.366Z,50.30
2018-07-01T03:53:32.986Z,49.70
2018-07-01T03:56:02.636Z,50.40
2018-07-01T03:58:33.942Z,50.40
2018-07-01T04:01:02.820Z,50.60
2018-07-01T04:03:32.624Z,50.30
2018-07-01T04:06:04.288Z,50.30
2018-07-01T04:08:32.832Z,50.40
2018-07-01T04:11:04.641Z,50.60
2018-07-01T04:13:33.062Z,50.00
2018-07-01T04:16:03.372Z,50.80
2018-07-01T04:18:32.924Z,50.50
2018-07-01T04:21:04.390Z,50.90
2018-07-01T04:23:32.739Z,50.30
2018-07-01T04:26:02.553Z,50.40
2018-07-01T04:28:34.198Z,51.40
2018-07-01T04:31:02.818Z,51.50
2018-07-01T04:33:32.881Z,51.80
2018-07-01T04:36:03.306Z,51.30
2018-07-01T04:38:33.137Z,51.50
2018-07-01T04:41:03.506Z,51.00
2018-07-01T04:43:33.346Z,52.00
2018-07-01T04:46:03.060Z,51.30
2018-07-01T04:48:32.840Z,52.00
2018-07-01T04:51:04.341Z,51.90
2018-07-01T04:53:32.769Z,52.10
2018-07-01T04:56:02.721Z,52.10
2018-07-01T04:58:32.582Z,52.60
2018-07-01T05:01:04.370Z,52.20
2018-07-01T05:03:32.827Z,53.10
2018-07-01T05:06:02.916Z,52.80
2018-07-01T05:08:34.427Z,52.70
2018-07-01T05:11:02.850Z,52.50
2018-07-01T05:13:33.011Z,53.10
2018-07-01T05:16:02.709Z,53.10
2018-07-01T05:18:34.463Z,53.40
2018-07-01T05:21:03.007Z,52.80
2018-07-01T05:23:32.986Z,52.60
2018-07-01T05:26:02.942Z,52.00
2018-07-01T05:28:34.896Z,52.40
2018-07-01T05:31:03.459Z,51.90
2018-07-01T05:33:32.971Z,52.20
2018-07-01T05:36:04.437Z,52.70
2018-07-01T05:38:32.879Z,52.90
2018-07-01T05:41:03.104Z,52.70
2018-07-01T05:43:33.023Z,54.00
2018-07-01T05:46:04.414Z,53.40
2018-07-01T05:48:33.495Z,53.60
2018-07-01T05:51:03.327Z,53.90
2018-07-01T05:53:33.920Z,53.80
2018-07-01T05:56:03.580Z,53.50
2018-07-01T05:58:33.985Z,54.50
2018-07-01T06:01:03.671Z,53.10
2018-07-01T06:03:33.397Z,53.50
2018-07-01T06:06:04.086Z,53.90
2018-07-01T06:08:33.856Z,53.50
2018-07-01T06:11:04.139Z,53.10
2018-07-01T06:13:33.114Z,53.30
2018-07-01T06:16:03.955Z,53.40
2018-07-01T06:18:33.330Z,52.70
2018-07-01T06:21:03.501Z,52.60
2018-07-01T06:23:32.976Z,51.70
2018-07-01T06:26:03.721Z,51.70
2018-07-01T06:28:33.562Z,50.70
2018-07-01T06:31:02.515Z,51.20
2018-07-01T06:33:34.475Z,51.10
2018-07-01T06:36:02.959Z,51.30
2018-07-01T06:38:32.855Z,52.40
2018-07-01T06:41:04.728Z,51.20
2018-07-01T06:43:33.260Z,50.60
2018-07-01T06:46:03.599Z,49.70
2018-07-01T06:48:33.879Z,50.70
2018-07-01T06:51:03.911Z,50.50
2018-07-01T06:53:33.656Z,49.60
2018-07-01T06:56:03.604Z,50.00
2018-07-01T06:58:34.242Z,49.20
2018-07-01T07:01:03.556Z,48.50
2018-07-01T07:03:33.311Z,50.10
2018-07-01T07:06:03.368Z,49.60
2018-07-01T07:08:33.934Z,49.60
2018-07-01T07:11:04.273Z,49.30
2018-07-01T07:13:34.460Z,49.30
2018-07-01T07:16:03.444Z,48.60
2018-07-01T07:18:33.354Z,47.80
2018-07-01T07:21:03.852Z,47.60
2018-07-01T07:23:33.966Z,48.60
2018-07-01T07:26:04.220Z,47.60
2018-07-01T07:28:33.039Z,47.60
2018-07-01T07:31:03.686Z,48.20
2018-07-01T07:33:33.164Z,45.90
2018-07-01T07:36:04.308Z,46.40
2018-07-01T07:38:33.433Z,46.90
2018-07-01T07:41:03.464Z,43.60
2018-07-01T07:43:33.477Z,45.00
2018-07-01T07:46:03.418Z,46.10
2018-07-01T07:48:33.393Z,46.60
2018-07-01T07:51:03.812Z,45.80
2018-07-01T07:53:33.718Z,45.40
2018-07-01T07:56:03.355Z,44.80
2018-07-01T07:58:33.360Z,43.40
2018-07-01T08:01:04.160Z,43.50
2018-07-01T08:03:34.010Z,42.30
2018-07-01T08:06:03.846Z,42.30
2018-07-01T08:08:33.484Z,42.20
2018-07-01T08:11:03.889Z,42.40
2018-07-01T08:13:33.473Z,44.20
2018-07-01T08:16:03.368Z,44.60
2018-07-01T08:18:33.261Z,43.40
2018-07-01T08:21:03.464Z,42.20
2018-07-01T08:23:33.207Z,44.10
2018-07-01T08:26:03.564Z,43.80
2018-07-01T08:28:33.446Z,43.10
2018-07-01T08:31:03.105Z,42.30
2018-07-01T08:33:32.613Z,41.90
2018-07-01T08:36:04.708Z,40.80
2018-07-01T08:38:33.205Z,41.70
2018-07-01T08:41:03.225Z,41.30
2018-07-01T08:43:33.164Z,41.20
2018-07-01T08:46:03.671Z,41.20
2018-07-01T08:48:32.411Z,42.00
2018-07-01T08:51:04.492Z,42.80
2018-07-01T08:53:33.998Z,41.10
2018-07-01T08:56:03.836Z,40.30
2018-07-01T08:58:33.660Z,39.60
2018-07-01T09:01:03.254Z,39.50
2018-07-01T09:03:33.301Z,39.70
2018-07-01T09:06:03.979Z,41.40
2018-07-01T09:08:33.487Z,40.30
2018-07-01T09:11:03.233Z,39.90
2018-07-01T09:13:32.796Z,39.90
2018-07-01T09:16:04.556Z,41.00
2018-07-01T09:18:33.299Z,39.20
2018-07-01T09:21:03.791Z,40.70
2018-07-01T09:23:33.965Z,39.90
2018-07-01T09:26:03.238Z,39.60
2018-07-01T09:28:33.049Z,38.60
2018-07-01T09:31:04.528Z,37.70
2018-07-01T09:33:33.025Z,38.20
2018-07-01T09:36:02.933Z,38.40
2018-07-01T09:38:34.936Z,38.70
2018-07-01T09:41:03.409Z,38.20
2018-07-01T09:43:33.368Z,39.40
2018-07-01T09:46:03.471Z,39.00
2018-07-01T09:48:33.749Z,39.50
2018-07-01T09:51:03.467Z,39.30
2018-07-01T09:53:33.493Z,39.30
2018-07-01T09:56:04.044Z,38.30
2018-07-01T09:58:33.833Z,38.90
2018-07-01T10:01:04.356Z,38.60
2018-07-01T10:03:34.576Z,37.80
2018-07-01T10:06:03.129Z,38.10
2018-07-01T10:08:33.036Z,37.80
2018-07-01T10:11:04.958Z,38.30
2018-07-01T10:13:34.711Z,38.00
2018-07-01T10:16:03.615Z,38.60
2018-07-01T10:18:35.044Z,38.10
2018-07-01T10:21:03.747Z,38.20
2018-07-01T10:23:33.236Z,38.50
2018-07-01T10:26:03.123Z,39.60
2018-07-01T10:28:33.608Z,37.90
2018-07-01T10:31:03.129Z,37.70
2018-07-01T10:33:33.349Z,37.70
2018-07-01T10:36:03.153Z,39.50
2018-07-01T10:38:33.643Z,37.10
2018-07-01T10:41:03.334Z,36.80
2018-07-01T10:43:33.277Z,37.60
2018-07-01T10:46:03.936Z,38.50
2018-07-01T10:48:33.545Z,37.90
2018-07-01T10:51:03.327Z,36.30
2018-07-01T10:53:32.888Z,36.10
2018-07-01T10:56:05.046Z,36.20
2018-07-01T10:58:33.750Z,37.20
2018-07-01T11:01:03.084Z,39.10
2018-07-01T11:03:34.872Z,36.50
2018-07-01T11:06:03.880Z,37.10
2018-07-01T11:08:34.335Z,37.40
2018-07-01T11:11:03.466Z,35.60
2018-07-01T11:13:33.764Z,35.80
2018-07-01T11:16:04.057Z,34.40
2018-07-01T11:18:33.940Z,35.10
2018-07-01T11:21:03.709Z,35.50
2018-07-01T11:23:33.552Z,35.50
2018-07-01T11:26:03.008Z,35.50
2018-07-01T11:28:33.215Z,34.50
2018-07-01T11:31:03.824Z,34.10
2018-07-01T11:33:33.699Z,33.90
2018-07-01T11:36:03.329Z,36.20
2018-07-01T11:38:33.970Z,34.80
2018-07-01T11:41:03.431Z,34.10
2018-07-01T11:43:33.305Z,33.50
2018-07-01T11:46:05.120Z,33.90
2018-07-01T11:48:33.852Z,36.80
2018-07-01T11:51:03.363Z,33.70
2018-07-01T11:53:33.707Z,32.80
2018-07-01T11:56:04.296Z,32.40
2018-07-01T11:58:33.786Z,32.50
2018-07-01T12:01:03.788Z,32.90
2018-07-01T12:03:33.513Z,33.50
2018-07-01T12:06:03.566Z,33.00
2018-07-01T12:08:34.261Z,33.40
2018-07-01T12:11:04.053Z,31.90
2018-07-01T12:13:33.768Z,31.30
2018-07-01T12:16:03.886Z,32.50
2018-07-01T12:18:33.933Z,32.60
2018-07-01T12:21:04.436Z,30.40
2018-07-01T12:23:34.874Z,31.70
2018-07-01T12:26:04.495Z,31.30
2018-07-01T12:28:33.656Z,32.60
2018-07-01T12:31:04.384Z,31.10
2018-07-01T12:33:33.312Z,30.00
2018-07-01T12:36:05.880Z,30.00
2018-07-01T12:38:34.958Z,30.00
2018-07-01T12:41:03.840Z,31.10
2018-07-01T12:43:34.389Z,30.20
2018-07-01T12:46:04.281Z,31.00
2018-07-01T12:48:34.346Z,30.30
2018-07-01T12:51:04.748Z,29.60
2018-07-01T12:53:33.605Z,29.20
2018-07-01T12:56:04.366Z,29.20
2018-07-01T12:58:33.549Z,29.50
2018-07-01T13:01:04.684Z,28.50
2018-07-01T13:03:33.726Z,29.40
2018-07-01T13:06:03.800Z,28.80
2018-07-01T13:08:33.740Z,29.20
2018-07-01T13:11:04.453Z,30.50
2018-07-01T13:13:33.652Z,29.80
2018-07-01T13:16:04.274Z,28.30
2018-07-01T13:18:34.957Z,29.40
2018-07-01T13:21:04.431Z,30.20
2018-07-01T13:23:33.730Z,28.30
2018-07-01T13:26:04.157Z,29.30
2018-07-01T13:28:34.177Z,29.30
2018-07-01T13:31:04.049Z,29.70
2018-07-01T13:33:34.642Z,30.10
2018-07-01T13:36:04.661Z,29.50
2018-07-01T13:38:36.024Z,28.00
2018-07-01T13:41:05.651Z,28.10
2018-07-01T13:43:34.945Z,29.90
2018-07-01T13:46:03.654Z,29.20
2018-07-01T13:48:34.229Z,28.90
2018-07-01T13:51:04.315Z,29.20
2018-07-01T13:53:33.936Z,28.50
2018-07-01T13:56:06.032Z,28.40
2018-07-01T13:58:35.357Z,29.30
2018-07-01T14:01:04.469Z,28.10
2018-07-01T14:03:34.452Z,28.50
2018-07-01T14:06:03.475Z,28.50
2018-07-01T14:08:34.846Z,27.70
2018-07-01T14:11:04.922Z,28.50
2018-07-01T14:13:34.010Z,28.30
2018-07-01T14:16:04.028Z,28.50
2018-07-01T14:18:35.614Z,29.00
2018-07-01T14:21:05.088Z,29.80
2018-07-01T14:23:37.289Z,28.40
2018-07-01T14:26:06.448Z,28.60
2018-07-01T14:28:35.349Z,27.20
2018-07-01T14:31:04.592Z,28.10
2018-07-01T14:33:33.784Z,27.70
2018-07-01T14:36:04.682Z,28.30
2018-07-01T14:38:33.836Z,29.30
2018-07-01T14:41:04.194Z,28.60
2018-07-01T14:43:34.094Z,27.60
2018-07-01T14:46:03.887Z,27.60
2018-07-01T14:48:34.457Z,29.30
2018-07-01T14:51:04.218Z,28.00
2018-07-01T14:53:34.032Z,26.90
2018-07-01T14:56:05.923Z,28.40
2018-07-01T14:58:34.882Z,29.20
2018-07-01T15:01:04.555Z,27.60
2018-07-01T15:03:34.506Z,29.20
2018-07-01T15:06:06.568Z,28.60
2018-07-01T15:08:36.669Z,27.60
2018-07-01T15:11:05.353Z,29.20
2018-07-01T15:13:34.448Z,27.90
2018-07-01T15:16:03.781Z,28.40
2018-07-01T15:18:36.111Z,28.40
2018-07-01T15:21:06.845Z,28.20
2018-07-01T15:23:36.885Z,29.80
2018-07-01T15:26:07.005Z,28.90
2018-07-01T15:28:37.038Z,28.00
2018-07-01T15:31:07.330Z,28.40
2018-07-01T15:33:36.190Z,28.70
2018-07-01T15:36:05.313Z,27.90
2018-07-01T15:38:35.081Z,28.30
2018-07-01T15:41:04.285Z,29.50
2018-07-01T15:43:34.545Z,28.70
2018-07-01T15:46:04.732Z,27.80
2018-07-01T15:48:34.331Z,27.20
2018-07-01T15:51:03.932Z,27.30
2018-07-01T15:53:35.161Z,27.30
2018-07-01T15:56:04.481Z,28.00
2018-07-01T15:58:33.964Z,28.00
2018-07-01T16:01:06.736Z,29.00
2018-07-01T16:03:35.596Z,28.70
2018-07-01T16:09:10.233Z,28.70
2018-07-01T16:14:26.296Z,28.10
2018-07-01T16:19:33.285Z,28.80
2018-07-01T16:22:02.074Z,28.80
2018-07-01T16:31:34.425Z,28.40
2018-07-01T16:34:04.132Z,28.90
2018-07-01T16:36:32.924Z,28.40
2018-07-01T16:39:02.084Z,29.00
2018-07-01T16:41:33.065Z,29.10
2018-07-01T16:44:02.036Z,28.70
2018-07-01T16:46:32.430Z,29.60
2018-07-01T16:49:03.232Z,30.10
2018-07-01T16:51:33.304Z,28.10
2018-07-01T16:54:02.568Z,28.20
2018-07-01T16:56:32.228Z,28.10
2018-07-01T16:59:02.591Z,29.20
2018-07-01T17:01:33.641Z,29.00
2018-07-01T17:04:02.647Z,28.90
2018-07-01T17:06:32.447Z,29.00
2018-07-01T17:09:03.131Z,29.30
2018-07-01T17:11:32.165Z,29.60
2018-07-01T17:14:01.918Z,29.80
2018-07-01T17:16:34.181Z,28.40
2018-07-01T17:19:02.902Z,29.40
2018-07-01T17:21:32.960Z,29.70
2018-07-01T17:24:02.866Z,29.60
2018-07-01T17:26:32.428Z,29.50
2018-07-01T17:29:02.994Z,29.20
2018-07-01T17:34:21.665Z,29.90
2018-07-01T17:37:04.700Z,30.70
2018-07-01T17:39:33.542Z,30.10
2018-07-01T17:42:03.095Z,30.20
2018-07-01T17:44:32.297Z,30.20
2018-07-01T17:47:03.858Z,30.40
2018-07-01T17:49:32.740Z,29.90
2018-07-01T17:52:02.569Z,30.00
2018-07-01T17:54:32.801Z,29.30
2018-07-01T17:57:02.269Z,29.50
2018-07-01T18:02:33.125Z,30.30
2018-07-01T18:05:02.396Z,29.90
2018-07-01T18:07:33.128Z,30.00
2018-07-01T18:13:05.249Z,30.50
2018-07-01T18:15:35.569Z,30.60
2018-07-01T18:18:05.759Z,30.80
2018-07-01T18:20:34.362Z,31.30
2018-07-01T18:23:35.842Z,31.40
2018-07-01T18:25:32.247Z,31.30
2018-07-01T18:28:15.016Z,31.20
2018-07-01T18:30:33.908Z,31.50
2018-07-01T18:33:03.090Z,31.70
2018-07-01T18:35:32.880Z,31.70
2018-07-01T18:38:02.339Z,31.30
2018-07-01T18:40:32.570Z,31.70
2018-07-01T18:43:03.822Z,32.80
2018-07-01T18:45:32.722Z,31.60
2018-07-01T18:48:02.622Z,32.70
2018-07-01T18:50:37.721Z,31.30
2018-07-01T18:53:07.177Z,31.80
2018-07-01T18:55:36.527Z,33.10
2018-07-01T18:58:06.108Z,33.60
2018-07-01T19:00:36.310Z,31.90
2018-07-01T19:03:06.704Z,33.10
2018-07-01T19:05:35.586Z,31.40
2018-07-01T19:08:04.406Z,32.50
2018-07-01T19:10:34.570Z,31.70
2018-07-01T19:13:04.215Z,32.30
2018-07-01T19:15:33.484Z,33.30
2018-07-01T19:18:03.729Z,31.40
2018-07-01T19:20:32.904Z,34.10
2018-07-01T19:23:06.979Z,33.30
2018-07-01T19:25:36.095Z,32.30
2018-07-01T19:28:06.148Z,32.50
2018-07-01T19:30:35.318Z,34.80
2018-07-01T19:33:04.413Z,32.20
2018-07-01T19:35:33.573Z,32.60
2018-07-01T19:38:04.203Z,33.70
2018-07-01T19:40:34.080Z,32.60
2018-07-01T19:43:03.990Z,35.30
2018-07-01T19:45:33.023Z,33.20
2018-07-01T19:48:02.579Z,32.00
2018-07-01T19:50:40.948Z,33.80
2018-07-01T19:56:02.551Z,30.90
2018-07-01T19:58:32.684Z,33.80
2018-07-01T20:01:04.112Z,33.30
2018-07-01T20:03:33.147Z,35.90
2018-07-01T20:06:02.357Z,35.30
2018-07-01T20:08:32.776Z,33.70
2018-07-01T20:11:02.948Z,33.20
2018-07-01T20:13:32.800Z,34.10
2018-07-01T20:16:01.631Z,35.30
2018-07-01T20:18:32.327Z,36.60
2018-07-01T20:21:02.491Z,35.30
2018-07-01T20:23:34.342Z,35.30
2018-07-01T20:26:03.132Z,34.60
2018-07-01T20:28:32.905Z,34.10
2018-07-01T20:31:03.299Z,31.90
2018-07-01T20:33:33.328Z,33.60
2018-07-01T20:36:02.623Z,33.60
2018-07-01T20:38:33.165Z,33.40
2018-07-01T20:44:05.292Z,35.60
2018-07-01T20:46:34.296Z,34.10
2018-07-01T20:49:03.339Z,38.20
2018-07-01T20:51:32.282Z,35.30
2018-07-01T20:54:03.272Z,36.10
2018-07-01T20:56:32.331Z,36.10
2018-07-01T20:59:03.573Z,35.00
2018-07-01T21:01:32.719Z,35.10
2018-07-01T21:04:03.003Z,36.30
2018-07-01T21:06:33.391Z,34.60
2018-07-01T21:09:02.728Z,36.10
2018-07-01T21:11:33.789Z,37.70
2018-07-01T21:14:02.881Z,37.30
2018-07-01T21:16:33.378Z,36.20
2018-07-01T21:19:02.923Z,38.10
2018-07-01T21:21:32.491Z,37.40
2018-07-01T21:24:03.728Z,38.40
2018-07-01T21:26:33.391Z,37.80
2018-07-01T21:29:02.500Z,36.20
2018-07-01T21:31:33.356Z,37.40
2018-07-01T21:34:02.929Z,37.90
2018-07-01T21:36:32.795Z,39.10
2018-07-01T21:39:02.480Z,37.30
2018-07-01T21:41:33.210Z,38.30
2018-07-01T21:44:03.181Z,38.10
2018-07-01T21:46:33.329Z,38.30
2018-07-01T21:49:04.448Z,38.30
2018-07-01T21:51:33.110Z,38.60
2018-07-01T21:54:03.260Z,38.70
2018-07-01T21:56:33.514Z,39.00
2018-07-01T21:59:03.192Z,38.70
2018-07-01T22:01:33.413Z,39.90
2018-07-01T22:04:02.983Z,40.40
2018-07-01T22:06:38.649Z,39.20
2018-07-01T22:09:07.982Z,39.80
2018-07-01T22:12:01.361Z,37.30
2018-07-01T22:14:36.060Z,40.80
2018-07-01T22:17:06.045Z,39.10
2018-07-01T22:19:35.929Z,40.80
2018-07-01T22:22:04.653Z,41.50
2018-07-01T22:24:34.383Z,40.00
2018-07-01T22:27:03.146Z,41.80
2018-07-01T22:29:32.961Z,40.80
2018-07-01T22:32:02.856Z,40.20
2018-07-01T22:34:33.004Z,40.30
2018-07-01T22:37:03.030Z,40.40
2018-07-01T22:39:33.235Z,40.80
2018-07-01T22:42:03.252Z,41.60
2018-07-01T22:44:32.836Z,42.30
2018-07-01T22:47:02.899Z,41.80
2018-07-01T22:49:32.459Z,40.90
2018-07-01T22:52:02.328Z,42.50
2018-07-01T22:54:32.750Z,41.40
2018-07-01T22:57:02.888Z,41.60
2018-07-01T22:59:35.351Z,41.40
2018-07-01T23:12:07.225Z,42.00
2018-07-01T23:14:35.957Z,42.70
2018-07-01T23:17:04.808Z,42.20
2018-07-01T23:19:39.342Z,42.70
2018-07-01T23:22:07.973Z,41.80
2018-07-01T23:24:36.556Z,41.80
2018-07-01T23:27:05.654Z,43.00
2018-07-01T23:30:09.109Z,42.60
2018-07-01T23:32:38.500Z,43.20
2018-07-01T23:35:07.156Z,42.50
2018-07-01T23:37:35.760Z,42.70
2018-07-01T23:40:04.659Z,42.90
2018-07-01T23:42:33.621Z,43.30
2018-07-01T23:45:02.184Z,43.00
2018-07-01T23:47:32.238Z,43.80
2018-07-01T23:50:04.685Z,43.00
2018-07-01T23:52:33.439Z,43.40
2018-07-01T23:55:02.698Z,43.60
2018-07-01T23:57:32.576Z,44.30
